»·PEaware :: N448RA KSBD-KBFL

N448RA :: KSBD-KBFL

FLIGHT INFORMATION

Flight Status: Arrived
Operator: Privately registered:
United States
More flights under this callsign
Pilot: Scott M. (16181)
Aircraft: Unknown
(DA62)
More flights by this aircraft type
Origin: KSBD San Bernardino Intl
United States
Destination: KBFL Meadows
United States
More flights between these airports :: More routes between these airports
Route:
File this flight plan on PilotEdge
Remarks:
Altitude:
(Current/Filed)
8,500ft
Speed:
(Current/Filed)
100kts
Departed: 12-Aug-18 04:09 PM
Arrived: 12-Aug-18 05:03 PM
Distance/Time
Traveled:
120nm/0:54
Distance/Time
To Go:
Arrived

Flight Plot

Page will automatically refresh every two minutes.


Map Options




Map Legend


Flown Route
Filed Route
Departure Airport
Arrival Airport
Navaid (VOR, NDB)
Fix

Horizontal Profiles

Position Reports

Time Latitude Longitude Heading Altitude Ground
Speed
12-Aug-18 16:00 34.102425 -117.224717 93 1146ft 0kts
12-Aug-18 16:01 34.102425 -117.224717 93 1146ft 0kts
12-Aug-18 16:02 34.102425 -117.224717 93 1146ft 0kts
12-Aug-18 16:03 34.102425 -117.224717 93 1146ft 0kts
12-Aug-18 16:04 34.102425 -117.224717 93 1146ft 0kts
12-Aug-18 16:05 34.102545 -117.224841 205 1145ft 6kts
12-Aug-18 16:06 34.100346 -117.226576 247 1139ft 16kts
12-Aug-18 16:07 34.100497 -117.223516 70 1148ft 20kts
12-Aug-18 16:08 34.100810 -117.219740 162 1159ft 0kts
12-Aug-18 16:09 34.100810 -117.219740 162 1159ft 0kts
12-Aug-18 16:10 34.096443 -117.230961 251 1264ft 90kts
12-Aug-18 16:11 34.088230 -117.263820 275 1901ft 119kts
12-Aug-18 16:12 34.118988 -117.277982 344 2670ft 127kts
12-Aug-18 16:13 34.153398 -117.285545 347 3381ft 132kts
12-Aug-18 16:14 34.182759 -117.306115 322 4343ft 118kts
12-Aug-18 16:15 34.209244 -117.327164 323 5314ft 111kts
12-Aug-18 16:16 34.234831 -117.347536 324 6231ft 119kts
12-Aug-18 16:17 34.262549 -117.369553 324 6909ft 135kts
12-Aug-18 16:18 34.294227 -117.394750 325 7601ft 144kts
12-Aug-18 16:19 34.327839 -117.421517 326 8295ft 145kts
12-Aug-18 16:20 34.350035 -117.461709 288 8532ft 157kts
12-Aug-18 16:21 34.365816 -117.513391 288 8532ft 169kts
12-Aug-18 16:22 34.382124 -117.567144 288 8534ft 172kts
12-Aug-18 16:23 34.398569 -117.621454 288 8521ft 173kts
12-Aug-18 16:24 34.414285 -117.673471 287 8526ft 174kts
12-Aug-18 16:25 34.430798 -117.728394 287 8526ft 175kts
12-Aug-18 16:26 34.447464 -117.783782 287 8525ft 176kts
12-Aug-18 16:27 34.464194 -117.839441 287 8524ft 176kts
12-Aug-18 16:28 34.480925 -117.895239 286 8521ft 177kts
12-Aug-18 16:29 34.497774 -117.951517 286 8520ft 178kts
12-Aug-18 16:30 34.514691 -118.008121 286 8518ft 179kts
12-Aug-18 16:31 34.531573 -118.064739 286 8518ft 179kts
12-Aug-18 16:32 34.548517 -118.121660 286 8515ft 180kts
12-Aug-18 16:33 34.565467 -118.178723 286 8502ft 180kts
12-Aug-18 16:34 34.582383 -118.235825 287 8497ft 180kts
12-Aug-18 16:35 34.599265 -118.292860 286 8493ft 180kts
12-Aug-18 16:36 34.616061 -118.349798 286 8494ft 179kts
12-Aug-18 16:37 34.632812 -118.406566 286 8055ft 176kts
12-Aug-18 16:38 34.649082 -118.461859 286 7560ft 173kts
12-Aug-18 16:39 34.665157 -118.516573 285 7055ft 171kts
12-Aug-18 16:40 34.681217 -118.570534 294 6564ft 172kts
12-Aug-18 16:41 34.710368 -118.594071 328 6503ft 160kts
12-Aug-18 16:42 34.748340 -118.618479 328 6657ft 157kts
12-Aug-18 16:43 34.787381 -118.643366 328 6686ft 159kts
12-Aug-18 16:44 34.825439 -118.667884 334 6713ft 154kts
12-Aug-18 16:45 34.861555 -118.690686 335 6725ft 142kts
12-Aug-18 16:46 34.890736 -118.709192 335 6637ft 146kts
12-Aug-18 16:47 34.934086 -118.736608 327 6110ft 152kts
12-Aug-18 16:48 34.965064 -118.756528 327 5699ft 149kts
12-Aug-18 16:49 35.007339 -118.783565 328 5121ft 145kts
12-Aug-18 16:50 35.036847 -118.802366 328 4749ft 140kts
12-Aug-18 16:51 35.070214 -118.823718 328 4687ft 135kts
12-Aug-18 16:52 35.108748 -118.848411 329 4625ft 137kts
12-Aug-18 16:53 35.136867 -118.866441 329 4586ft 136kts
12-Aug-18 16:54 35.169379 -118.887300 329 4548ft 129kts
12-Aug-18 16:55 35.200997 -118.907606 330 4520ft 127kts
12-Aug-18 16:56 35.232179 -118.927656 330 4519ft 127kts
12-Aug-18 16:57 35.263846 -118.948039 330 4518ft 129kts
12-Aug-18 16:58 35.295648 -118.968527 330 4518ft 130kts
12-Aug-18 16:59 35.326638 -118.988493 330 4515ft 120kts
12-Aug-18 17:00 35.358260 -119.002010 343 4055ft 116kts
12-Aug-18 17:01 35.383871 -119.008898 340 2756ft 91kts
12-Aug-18 17:02 35.405025 -119.021855 321 1452ft 84kts
12-Aug-18 17:03 35.420934 -119.040710 315 781ft 76kts
12-Aug-18 17:04 35.435630 -119.058218 353 489ft 37kts
12-Aug-18 17:05 35.436285 -119.057704 72 492ft 8kts
12-Aug-18 17:06 35.431415 -119.051043 134 493ft 27kts
12-Aug-18 17:07 35.429542 -119.046588 133 494ft 7kts
12-Aug-18 17:08 35.429514 -119.046551 133 494ft 0kts

Navigation Log

Ident Type
1. KSBD Airport
2. KBFL Airport